Valdez, AK

2:20 PM AKDT on July 30, 2016 (GMT -0800)
Valdez | | Change Station

Elev 121 ft 61.13 °N, 146.25 °W | Updated 4 minutes ago

Overcast
Overcast
55 °F
Feels Like 55 °F
N
6
Wind Variable Wind from WSW

Today
High -- | Low -- °F
--% Chance of Precip.
Yesterday
High -- | Low -- °F
Precip. -- in
Pressure 30.13 in
Visibility 3.0 miles
Clouds Scattered Clouds 300 ft
Mostly Cloudy 1000 ft
Overcast 3000 ft
Dew Point 50 °F
Humidity 82%
Rainfall 0.06 in
Snow Depth Not available.
5:14 AM 10:26 PM
Waning Crescent, 10% visible
METAR PAVD 302216Z 25005KT 3SM SCT003 BKN010 OVC030 13/10 A3013 RMK AO1 2147Z WEA: BR RAE37 TWR WND 20004KT
Pressure 30.13 in
Visibility 3.0 miles
Clouds Scattered Clouds 300 ft
Mostly Cloudy 1000 ft
Overcast 3000 ft
Dew Point 50 °F
Humidity 82%
Rainfall 0.06 in
Snow Depth Not available.
5:14 AM 10:26 PM
Waning Crescent, 10% visible
METAR PAVD 302216Z 25005KT 3SM SCT003 BKN010 OVC030 13/10 A3013 RMK AO1 2147Z WEA: BR RAE37 TWR WND 20004KT

10-Day Weather Forecast

Almanac

Astronomy

Jul. 30, 2016 Rise Set
Actual Time
Civil Twilight
Nautical Twilight
Astronomical Twilight
Moon
Length of Visible Light
Length of Day
Tomorrow will be .
, % of the Moon is Illuminated

Today's Extremes

State Highs State Lows

Community

WunderPhotos

Upload Photos

1,928,661 photos uploaded!

WunderBlog® & News

Nearby

Air Quality

  Air Quality AQ Index Pollutant
Not available.

Snow Depth

Station Depth Elevation

Earthquake Activity

City Distance Mag. Time & Date
Minimum magnitude displayed is 2.5.

Coastal Water Temperatures

Place Temperature

Stations

Nearby Weather Stations

Station Location Temp. Windchill Dew Point Humidity Wind Precip. Elev Updated Type
                   

Watches & Warnings

There are currently no watches in effect.